Terminal Aerodrome Forecast
Issued by NWS

Home | Current Version | Previous Version | Graphics & Text | Print | Product List | Glossary On
Versions: 1 2 3 4 5 6 7 8 9 10 11 12 13
021
FTUS45 KGGW 211129
TAFSDY
TAF
KSDY 211129Z 2112/2212 07006KT P6SM BKN130
     FM211600 09010KT P6SM BKN080
     FM220000 11016G24KT P6SM BKN060=

USA.gov is the U.S. government's official web portal to all federal, state and local government web resources and services.